Terminal Aerodrome Forecast
Issued by NWS

Home | Current Version | Previous Version | Text Only | Print | Product List | Glossary On
Versions: 1 2 3 4 5 6 7 8 9 10 11 12 13 14 15
000
FTUS46 KSEW 260809 AAA
TAFBFI
TAF AMD
KBFI 260809Z 2608/2706 16008KT P6SM OVC035
      TEMPO 2610/2612 OVC025
     FM261200 17010KT P6SM OVC020
     FM262000 19012G20KT P6SM OVC030
     FM262100 19012G20KT P6SM VCSH BKN045
     FM270300 34007KT P6SM -SHRA BKN025 OVC045=

USA.gov is the U.S. government's official web portal to all federal, state and local government web resources and services.